sensor_id;sensor_type;location;lat;lon;timestamp;P1;durP1;ratioP1;P2;durP2;ratioP2
73331;SDS011;61560;33.718;73.040;2022-09-27T00:00:06;21.25;;;12.85;;
73331;SDS011;61560;33.718;73.040;2022-09-27T00:02:37;21.00;;;12.63;;
73331;SDS011;61560;33.718;73.040;2022-09-27T00:05:04;22.15;;;12.55;;
73331;SDS011;61560;33.718;73.040;2022-09-27T00:07:31;22.90;;;12.05;;
73331;SDS011;61560;33.718;73.040;2022-09-27T00:09:58;22.95;;;12.27;;
73331;SDS011;61560;33.718;73.040;2022-09-27T00:12:25;22.80;;;12.73;;
73331;SDS011;61560;33.718;73.040;2022-09-27T00:14:53;23.55;;;12.73;;
73331;SDS011;61560;33.718;73.040;2022-09-27T00:17:20;21.88;;;12.55;;
73331;SDS011;61560;33.718;73.040;2022-09-27T00:19:46;21.98;;;13.32;;
73331;SDS011;61560;33.718;73.040;2022-09-27T00:22:13;22.67;;;12.98;;
73331;SDS011;61560;33.718;73.040;2022-09-27T00:24:40;22.20;;;13.70;;
73331;SDS011;61560;33.718;73.040;2022-09-27T00:27:06;24.08;;;13.02;;
73331;SDS011;61560;33.718;73.040;2022-09-27T00:29:33;23.83;;;12.38;;
73331;SDS011;61560;33.718;73.040;2022-09-27T00:31:59;25.20;;;12.85;;
73331;SDS011;61560;33.718;73.040;2022-09-27T00:34:27;22.90;;;12.90;;
73331;SDS011;61560;33.718;73.040;2022-09-27T00:36:53;20.15;;;11.95;;
73331;SDS011;61560;33.718;73.040;2022-09-27T00:39:20;23.88;;;12.52;;
73331;SDS011;61560;33.718;73.040;2022-09-27T00:41:47;24.02;;;11.35;;
73331;SDS011;61560;33.718;73.040;2022-09-27T00:52:12;21.52;;;11.32;;
73331;SDS011;61560;33.718;73.040;2022-09-27T00:54:47;21.77;;;11.93;;
73331;SDS011;61560;33.718;73.040;2022-09-27T00:57:19;25.50;;;13.30;;
73331;SDS011;61560;33.718;73.040;2022-09-27T00:59:49;20.60;;;13.30;;
73331;SDS011;61560;33.718;73.040;2022-09-27T01:02:20;22.65;;;12.25;;
73331;SDS011;61560;33.718;73.040;2022-09-27T01:04:47;25.30;;;12.45;;
73331;SDS011;61560;33.718;73.040;2022-09-27T01:07:15;21.05;;;11.82;;
73331;SDS011;61560;33.718;73.040;2022-09-27T01:09:42;20.75;;;12.35;;
73331;SDS011;61560;33.718;73.040;2022-09-27T01:12:22;24.17;;;12.25;;
73331;SDS011;61560;33.718;73.040;2022-09-27T01:17:53;20.67;;;10.82;;
73331;SDS011;61560;33.718;73.040;2022-09-27T01:31:26;22.05;;;11.38;;
73331;SDS011;61560;33.718;73.040;2022-09-27T01:34:01;19.48;;;10.80;;
73331;SDS011;61560;33.718;73.040;2022-09-27T01:45:20;22.77;;;13.18;;
73331;SDS011;61560;33.718;73.040;2022-09-27T01:48:16;22.05;;;12.77;;
73331;SDS011;61560;33.718;73.040;2022-09-27T01:53:45;23.40;;;13.10;;
73331;SDS011;61560;33.718;73.040;2022-09-27T01:56:48;24.10;;;12.75;;
73331;SDS011;61560;33.718;73.040;2022-09-27T01:59:32;26.85;;;13.38;;
73331;SDS011;61560;33.718;73.040;2022-09-27T02:02:25;23.50;;;13.32;;
73331;SDS011;61560;33.718;73.040;2022-09-27T02:05:31;22.30;;;13.50;;
73331;SDS011;61560;33.718;73.040;2022-09-27T02:09:03;22.67;;;13.32;;
73331;SDS011;61560;33.718;73.040;2022-09-27T02:11:58;27.67;;;13.15;;
73331;SDS011;61560;33.718;73.040;2022-09-27T02:14:41;24.13;;;13.38;;
73331;SDS011;61560;33.718;73.040;2022-09-27T02:23:10;37.17;;;19.42;;
73331;SDS011;61560;33.718;73.040;2022-09-27T02:26:00;36.47;;;19.45;;
73331;SDS011;61560;33.718;73.040;2022-09-27T02:28:50;37.63;;;18.92;;
73331;SDS011;61560;33.718;73.040;2022-09-27T02:31:42;31.98;;;18.90;;
73331;SDS011;61560;33.718;73.040;2022-09-27T02:34:13;33.58;;;18.02;;
73331;SDS011;61560;33.718;73.040;2022-09-27T02:36:48;34.33;;;19.27;;
73331;SDS011;61560;33.718;73.040;2022-09-27T02:39:19;36.25;;;18.33;;
73331;SDS011;61560;33.718;73.040;2022-09-27T02:41:56;36.75;;;19.27;;
73331;SDS011;61560;33.718;73.040;2022-09-27T02:44:25;36.05;;;17.17;;
73331;SDS011;61560;33.718;73.040;2022-09-27T02:50:16;34.25;;;17.77;;
73331;SDS011;61560;33.718;73.040;2022-09-27T03:05:25;27.75;;;14.55;;
73331;SDS011;61560;33.718;73.040;2022-09-27T03:07:55;26.15;;;15.38;;
73331;SDS011;61560;33.718;73.040;2022-09-27T03:10:26;28.05;;;15.48;;
73331;SDS011;61560;33.718;73.040;2022-09-27T03:12:54;25.73;;;14.90;;
73331;SDS011;61560;33.718;73.040;2022-09-27T03:15:23;32.00;;;16.13;;
73331;SDS011;61560;33.718;73.040;2022-09-27T03:18:02;29.27;;;15.82;;
73331;SDS011;61560;33.718;73.040;2022-09-27T03:20:41;34.63;;;15.43;;
73331;SDS011;61560;33.718;73.040;2022-09-27T03:23:16;28.83;;;15.43;;
73331;SDS011;61560;33.718;73.040;2022-09-27T03:25:47;20.92;;;14.38;;
73331;SDS011;61560;33.718;73.040;2022-09-27T03:28:14;26.25;;;15.18;;
73331;SDS011;61560;33.718;73.040;2022-09-27T03:30:45;25.30;;;14.88;;
73331;SDS011;61560;33.718;73.040;2022-09-27T03:33:31;25.85;;;14.13;;
73331;SDS011;61560;33.718;73.040;2022-09-27T03:36:03;24.67;;;15.02;;
73331;SDS011;61560;33.718;73.040;2022-09-27T03:38:31;29.33;;;16.05;;
73331;SDS011;61560;33.718;73.040;2022-09-27T03:40:58;33.58;;;15.55;;
73331;SDS011;61560;33.718;73.040;2022-09-27T03:43:25;29.05;;;16.23;;
73331;SDS011;61560;33.718;73.040;2022-09-27T03:45:55;30.02;;;16.00;;
73331;SDS011;61560;33.718;73.040;2022-09-27T03:48:22;27.17;;;16.20;;
73331;SDS011;61560;33.718;73.040;2022-09-27T03:50:50;26.17;;;15.55;;
73331;SDS011;61560;33.718;73.040;2022-09-27T03:53:16;31.05;;;16.45;;
73331;SDS011;61560;33.718;73.040;2022-09-27T03:55:46;27.25;;;15.50;;
73331;SDS011;61560;33.718;73.040;2022-09-27T03:58:13;27.20;;;15.77;;
73331;SDS011;61560;33.718;73.040;2022-09-27T04:00:40;28.75;;;17.80;;
73331;SDS011;61560;33.718;73.040;2022-09-27T05:05:00;36.60;;;22.90;;
73331;SDS011;61560;33.718;73.040;2022-09-27T05:07:33;34.38;;;22.33;;
73331;SDS011;61560;33.718;73.040;2022-09-27T05:12:31;32.53;;;20.58;;
73331;SDS011;61560;33.718;73.040;2022-09-27T05:15:00;30.55;;;20.23;;
73331;SDS011;61560;33.718;73.040;2022-09-27T05:18:04;26.95;;;18.25;;
73331;SDS011;61560;33.718;73.040;2022-09-27T05:21:05;32.15;;;19.70;;
73331;SDS011;61560;33.718;73.040;2022-09-27T05:23:37;22.77;;;17.15;;
73331;SDS011;61560;33.718;73.040;2022-09-27T05:26:05;25.30;;;17.30;;
73331;SDS011;61560;33.718;73.040;2022-09-27T05:28:33;24.63;;;17.63;;
73331;SDS011;61560;33.718;73.040;2022-09-27T05:31:02;29.27;;;15.48;;
73331;SDS011;61560;33.718;73.040;2022-09-27T05:33:30;29.73;;;15.38;;
73331;SDS011;61560;33.718;73.040;2022-09-27T05:36:21;29.52;;;15.88;;
73331;SDS011;61560;33.718;73.040;2022-09-27T05:38:49;25.13;;;15.63;;
73331;SDS011;61560;33.718;73.040;2022-09-27T05:41:19;28.55;;;17.90;;
73331;SDS011;61560;33.718;73.040;2022-09-27T05:43:46;29.17;;;17.65;;
73331;SDS011;61560;33.718;73.040;2022-09-27T05:46:13;26.73;;;18.08;;
73331;SDS011;61560;33.718;73.040;2022-09-27T05:48:41;28.67;;;17.45;;
73331;SDS011;61560;33.718;73.040;2022-09-27T05:51:09;24.10;;;17.27;;
73331;SDS011;61560;33.718;73.040;2022-09-27T05:53:39;28.38;;;16.90;;
73331;SDS011;61560;33.718;73.040;2022-09-27T05:56:12;27.60;;;16.95;;
73331;SDS011;61560;33.718;73.040;2022-09-27T05:58:59;32.33;;;17.85;;
73331;SDS011;61560;33.718;73.040;2022-09-27T06:01:38;26.83;;;16.90;;
73331;SDS011;61560;33.718;73.040;2022-09-27T06:04:32;28.25;;;17.10;;
73331;SDS011;61560;33.718;73.040;2022-09-27T06:07:25;27.05;;;17.70;;
73331;SDS011;61560;33.718;73.040;2022-09-27T06:09:54;24.58;;;16.17;;
73331;SDS011;61560;33.718;73.040;2022-09-27T06:12:22;24.20;;;16.92;;
73331;SDS011;61560;33.718;73.040;2022-09-27T06:14:49;24.60;;;16.20;;
73331;SDS011;61560;33.718;73.040;2022-09-27T06:17:32;35.28;;;17.23;;
73331;SDS011;61560;33.718;73.040;2022-09-27T06:20:06;30.55;;;16.95;;
73331;SDS011;61560;33.718;73.040;2022-09-27T06:22:35;30.20;;;18.45;;
73331;SDS011;61560;33.718;73.040;2022-09-27T06:25:03;29.92;;;18.13;;
73331;SDS011;61560;33.718;73.040;2022-09-27T06:27:35;30.00;;;16.88;;
73331;SDS011;61560;33.718;73.040;2022-09-27T06:30:08;27.52;;;16.60;;
73331;SDS011;61560;33.718;73.040;2022-09-27T06:32:46;29.83;;;17.83;;
73331;SDS011;61560;33.718;73.040;2022-09-27T06:35:33;33.58;;;20.27;;
73331;SDS011;61560;33.718;73.040;2022-09-27T06:38:04;34.30;;;19.70;;
73331;SDS011;61560;33.718;73.040;2022-09-27T06:40:35;34.38;;;18.75;;
73331;SDS011;61560;33.718;73.040;2022-09-27T06:43:28;28.13;;;18.33;;
73331;SDS011;61560;33.718;73.040;2022-09-27T06:45:59;32.37;;;19.00;;
73331;SDS011;61560;33.718;73.040;2022-09-27T06:49:03;27.27;;;16.90;;
73331;SDS011;61560;33.718;73.040;2022-09-27T06:51:34;27.93;;;16.33;;
73331;SDS011;61560;33.718;73.040;2022-09-27T06:54:01;31.58;;;16.52;;
73331;SDS011;61560;33.718;73.040;2022-09-27T06:56:30;28.80;;;17.02;;
73331;SDS011;61560;33.718;73.040;2022-09-27T06:58:57;26.45;;;16.55;;
73331;SDS011;61560;33.718;73.040;2022-09-27T07:01:42;31.25;;;17.23;;
73331;SDS011;61560;33.718;73.040;2022-09-27T07:04:27;34.90;;;19.77;;
73331;SDS011;61560;33.718;73.040;2022-09-27T07:07:21;37.17;;;20.30;;
73331;SDS011;61560;33.718;73.040;2022-09-27T07:09:48;44.40;;;22.58;;
73331;SDS011;61560;33.718;73.040;2022-09-27T07:12:16;36.92;;;20.45;;
73331;SDS011;61560;33.718;73.040;2022-09-27T07:14:43;36.63;;;21.00;;
73331;SDS011;61560;33.718;73.040;2022-09-27T07:17:12;31.73;;;20.08;;
73331;SDS011;61560;33.718;73.040;2022-09-27T07:19:47;39.72;;;19.75;;
73331;SDS011;61560;33.718;73.040;2022-09-27T07:22:14;35.30;;;20.85;;
73331;SDS011;61560;33.718;73.040;2022-09-27T07:24:46;33.45;;;19.65;;
73331;SDS011;61560;33.718;73.040;2022-09-27T07:27:14;28.52;;;17.58;;
73331;SDS011;61560;33.718;73.040;2022-09-27T07:29:40;31.25;;;18.85;;
73331;SDS011;61560;33.718;73.040;2022-09-27T07:32:07;33.05;;;18.65;;
73331;SDS011;61560;33.718;73.040;2022-09-27T07:34:36;34.50;;;18.60;;
73331;SDS011;61560;33.718;73.040;2022-09-27T07:37:03;40.22;;;19.73;;
73331;SDS011;61560;33.718;73.040;2022-09-27T07:39:33;35.47;;;19.30;;
73331;SDS011;61560;33.718;73.040;2022-09-27T07:42:01;37.28;;;20.23;;
73331;SDS011;61560;33.718;73.040;2022-09-27T07:44:27;37.55;;;20.70;;
73331;SDS011;61560;33.718;73.040;2022-09-27T07:47:17;33.22;;;18.80;;
73331;SDS011;61560;33.718;73.040;2022-09-27T07:50:19;34.90;;;18.67;;
73331;SDS011;61560;33.718;73.040;2022-09-27T07:52:54;38.17;;;20.73;;
73331;SDS011;61560;33.718;73.040;2022-09-27T07:55:34;33.40;;;20.00;;
73331;SDS011;61560;33.718;73.040;2022-09-27T07:58:09;27.40;;;17.17;;
73331;SDS011;61560;33.718;73.040;2022-09-27T08:03:30;37.97;;;20.63;;
73331;SDS011;61560;33.718;73.040;2022-09-27T08:06:00;37.55;;;21.40;;
73331;SDS011;61560;33.718;73.040;2022-09-27T08:08:29;36.33;;;21.63;;
73331;SDS011;61560;33.718;73.040;2022-09-27T08:10:58;43.85;;;22.58;;
73331;SDS011;61560;33.718;73.040;2022-09-27T08:13:25;36.90;;;22.40;;
73331;SDS011;61560;33.718;73.040;2022-09-27T08:15:52;41.33;;;22.48;;
73331;SDS011;61560;33.718;73.040;2022-09-27T08:18:23;39.05;;;23.65;;
73331;SDS011;61560;33.718;73.040;2022-09-27T08:20:55;41.05;;;23.10;;
73331;SDS011;61560;33.718;73.040;2022-09-27T08:23:49;37.17;;;21.60;;
73331;SDS011;61560;33.718;73.040;2022-09-27T08:26:22;36.88;;;19.92;;
73331;SDS011;61560;33.718;73.040;2022-09-27T08:29:03;37.70;;;20.88;;
73331;SDS011;61560;33.718;73.040;2022-09-27T08:31:36;28.30;;;18.17;;
73331;SDS011;61560;33.718;73.040;2022-09-27T08:34:03;34.20;;;19.73;;
73331;SDS011;61560;33.718;73.040;2022-09-27T08:36:30;36.08;;;20.33;;
73331;SDS011;61560;33.718;73.040;2022-09-27T08:39:02;34.53;;;20.45;;
73331;SDS011;61560;33.718;73.040;2022-09-27T08:42:27;34.60;;;20.55;;
73331;SDS011;61560;33.718;73.040;2022-09-27T08:45:03;34.00;;;19.98;;
73331;SDS011;61560;33.718;73.040;2022-09-27T08:47:35;33.65;;;20.50;;
73331;SDS011;61560;33.718;73.040;2022-09-27T08:53:26;31.48;;;19.92;;
73331;SDS011;61560;33.718;73.040;2022-09-27T08:55:57;30.85;;;19.88;;
73331;SDS011;61560;33.718;73.040;2022-09-27T08:58:35;34.30;;;21.08;;
73331;SDS011;61560;33.718;73.040;2022-09-27T09:01:15;31.75;;;20.42;;
73331;SDS011;61560;33.718;73.040;2022-09-27T09:04:10;29.08;;;19.92;;
73331;SDS011;61560;33.718;73.040;2022-09-27T09:06:48;28.27;;;19.13;;
73331;SDS011;61560;33.718;73.040;2022-09-27T09:12:23;35.65;;;20.00;;
73331;SDS011;61560;33.718;73.040;2022-09-27T09:21:12;32.28;;;18.70;;
73331;SDS011;61560;33.718;73.040;2022-09-27T09:36:11;30.15;;;19.25;;
73331;SDS011;61560;33.718;73.040;2022-09-27T09:38:19;28.13;;;19.23;;
73331;SDS011;61560;33.718;73.040;2022-09-27T09:46:51;28.88;;;18.05;;
73331;SDS011;61560;33.718;73.040;2022-09-27T09:52:09;30.38;;;17.33;;
73331;SDS011;61560;33.718;73.040;2022-09-27T09:57:19;27.35;;;17.67;;
73331;SDS011;61560;33.718;73.040;2022-09-27T09:59:56;27.23;;;17.42;;
73331;SDS011;61560;33.718;73.040;2022-09-27T10:02:33;28.73;;;18.08;;
73331;SDS011;61560;33.718;73.040;2022-09-27T10:05:10;27.10;;;18.20;;
73331;SDS011;61560;33.718;73.040;2022-09-27T10:07:41;29.48;;;16.95;;
73331;SDS011;61560;33.718;73.040;2022-09-27T10:10:10;28.38;;;17.92;;
73331;SDS011;61560;33.718;73.040;2022-09-27T10:12:58;29.88;;;18.05;;
73331;SDS011;61560;33.718;73.040;2022-09-27T10:15:33;31.92;;;18.08;;
73331;SDS011;61560;33.718;73.040;2022-09-27T10:18:03;30.95;;;19.40;;
73331;SDS011;61560;33.718;73.040;2022-09-27T10:20:34;29.10;;;18.20;;
73331;SDS011;61560;33.718;73.040;2022-09-27T10:23:14;29.98;;;18.27;;
73331;SDS011;61560;33.718;73.040;2022-09-27T10:26:03;27.20;;;17.83;;
73331;SDS011;61560;33.718;73.040;2022-09-27T10:31:16;24.67;;;16.73;;
73331;SDS011;61560;33.718;73.040;2022-09-27T10:37:05;28.05;;;16.58;;
73331;SDS011;61560;33.718;73.040;2022-09-27T10:39:57;26.88;;;16.85;;
73331;SDS011;61560;33.718;73.040;2022-09-27T10:42:32;28.17;;;16.55;;
73331;SDS011;61560;33.718;73.040;2022-09-27T10:45:19;23.88;;;15.05;;
73331;SDS011;61560;33.718;73.040;2022-09-27T10:47:55;25.58;;;15.98;;
73331;SDS011;61560;33.718;73.040;2022-09-27T10:50:32;27.77;;;16.65;;
73331;SDS011;61560;33.718;73.040;2022-09-27T10:53:12;25.77;;;16.00;;
73331;SDS011;61560;33.718;73.040;2022-09-27T10:55:46;26.05;;;16.00;;
73331;SDS011;61560;33.718;73.040;2022-09-27T10:58:19;27.02;;;16.40;;
73331;SDS011;61560;33.718;73.040;2022-09-27T11:00:57;24.63;;;15.32;;
73331;SDS011;61560;33.718;73.040;2022-09-27T11:03:36;26.90;;;14.73;;
73331;SDS011;61560;33.718;73.040;2022-09-27T11:06:19;24.80;;;16.17;;
73331;SDS011;61560;33.718;73.040;2022-09-27T11:08:55;24.27;;;15.10;;
73331;SDS011;61560;33.718;73.040;2022-09-27T11:11:36;29.10;;;15.13;;
73331;SDS011;61560;33.718;73.040;2022-09-27T11:14:04;20.58;;;13.40;;
73331;SDS011;61560;33.718;73.040;2022-09-27T11:22:38;22.23;;;13.52;;
73331;SDS011;61560;33.718;73.040;2022-09-27T11:28:06;22.83;;;14.32;;
73331;SDS011;61560;33.718;73.040;2022-09-27T11:33:41;20.50;;;13.82;;
73331;SDS011;61560;33.718;73.040;2022-09-27T11:49:49;20.20;;;13.23;;
73331;SDS011;61560;33.718;73.040;2022-09-27T11:57:52;23.85;;;14.00;;
73331;SDS011;61560;33.718;73.040;2022-09-27T12:03:58;27.40;;;14.48;;
73331;SDS011;61560;33.718;73.040;2022-09-27T12:09:10;21.45;;;13.30;;
73331;SDS011;61560;33.718;73.040;2022-09-27T12:11:45;20.85;;;13.00;;
73331;SDS011;61560;33.718;73.040;2022-09-27T12:16:44;23.08;;;13.95;;
73331;SDS011;61560;33.718;73.040;2022-09-27T12:19:18;24.42;;;15.73;;
73331;SDS011;61560;33.718;73.040;2022-09-27T12:22:04;21.95;;;14.15;;
73331;SDS011;61560;33.718;73.040;2022-09-27T12:24:40;24.42;;;14.90;;
73331;SDS011;61560;33.718;73.040;2022-09-27T12:27:39;27.65;;;16.63;;
73331;SDS011;61560;33.718;73.040;2022-09-27T12:30:17;27.40;;;16.00;;
73331;SDS011;61560;33.718;73.040;2022-09-27T12:35:45;30.50;;;15.95;;
73331;SDS011;61560;33.718;73.040;2022-09-27T12:38:18;25.55;;;15.60;;
73331;SDS011;61560;33.718;73.040;2022-09-27T12:41:10;26.20;;;15.43;;
73331;SDS011;61560;33.718;73.040;2022-09-27T12:43:57;23.98;;;15.50;;
73331;SDS011;61560;33.718;73.040;2022-09-27T12:52:20;25.25;;;15.40;;
73331;SDS011;61560;33.718;73.040;2022-09-27T14:02:26;29.33;;;16.00;;
73331;SDS011;61560;33.718;73.040;2022-09-27T14:04:58;26.13;;;15.10;;
73331;SDS011;61560;33.718;73.040;2022-09-27T14:07:37;26.77;;;15.05;;
73331;SDS011;61560;33.718;73.040;2022-09-27T14:10:11;26.02;;;15.18;;
73331;SDS011;61560;33.718;73.040;2022-09-27T14:12:44;31.75;;;17.13;;
73331;SDS011;61560;33.718;73.040;2022-09-27T14:15:16;26.40;;;16.20;;
73331;SDS011;61560;33.718;73.040;2022-09-27T14:18:03;29.25;;;15.90;;
73331;SDS011;61560;33.718;73.040;2022-09-27T14:20:35;29.15;;;15.75;;
73331;SDS011;61560;33.718;73.040;2022-09-27T14:23:11;25.27;;;15.82;;
73331;SDS011;61560;33.718;73.040;2022-09-27T14:25:48;25.23;;;15.18;;
73331;SDS011;61560;33.718;73.040;2022-09-27T14:28:26;29.13;;;15.87;;
73331;SDS011;61560;33.718;73.040;2022-09-27T14:31:19;27.23;;;15.35;;
73331;SDS011;61560;33.718;73.040;2022-09-27T14:34:10;31.02;;;15.82;;
73331;SDS011;61560;33.718;73.040;2022-09-27T14:36:43;29.60;;;15.18;;
73331;SDS011;61560;33.718;73.040;2022-09-27T14:39:56;24.13;;;15.20;;
73331;SDS011;61560;33.718;73.040;2022-09-27T14:42:34;29.80;;;16.17;;
73331;SDS011;61560;33.718;73.040;2022-09-27T14:45:04;31.23;;;14.77;;
73331;SDS011;61560;33.718;73.040;2022-09-27T14:47:44;30.15;;;14.55;;
73331;SDS011;61560;33.718;73.040;2022-09-27T14:50:16;26.63;;;15.00;;
73331;SDS011;61560;33.718;73.040;2022-09-27T14:52:50;28.80;;;15.05;;
73331;SDS011;61560;33.718;73.040;2022-09-27T14:55:23;25.95;;;14.68;;
73331;SDS011;61560;33.718;73.040;2022-09-27T14:57:58;31.58;;;15.55;;
73331;SDS011;61560;33.718;73.040;2022-09-27T15:00:30;27.50;;;15.25;;
73331;SDS011;61560;33.718;73.040;2022-09-27T15:03:03;25.95;;;15.25;;
73331;SDS011;61560;33.718;73.040;2022-09-27T15:05:34;27.90;;;14.77;;
73331;SDS011;61560;33.718;73.040;2022-09-27T15:08:06;26.98;;;14.85;;
73331;SDS011;61560;33.718;73.040;2022-09-27T15:10:36;29.00;;;15.27;;
73331;SDS011;61560;33.718;73.040;2022-09-27T15:13:04;30.52;;;16.33;;
73331;SDS011;61560;33.718;73.040;2022-09-27T15:15:34;28.05;;;15.10;;
73331;SDS011;61560;33.718;73.040;2022-09-27T15:21:11;25.50;;;14.45;;
73331;SDS011;61560;33.718;73.040;2022-09-27T15:23:40;25.35;;;14.80;;
73331;SDS011;61560;33.718;73.040;2022-09-27T15:26:19;25.35;;;15.02;;
73331;SDS011;61560;33.718;73.040;2022-09-27T15:28:54;22.33;;;13.40;;
73331;SDS011;61560;33.718;73.040;2022-09-27T15:31:28;21.85;;;13.85;;
73331;SDS011;61560;33.718;73.040;2022-09-27T15:33:56;24.48;;;14.18;;
73331;SDS011;61560;33.718;73.040;2022-09-27T15:37:09;21.60;;;13.48;;
73331;SDS011;61560;33.718;73.040;2022-09-27T15:39:34;24.80;;;13.93;;
73331;SDS011;61560;33.718;73.040;2022-09-27T15:42:03;28.42;;;14.38;;
73331;SDS011;61560;33.718;73.040;2022-09-27T15:44:53;23.00;;;13.73;;
73331;SDS011;61560;33.718;73.040;2022-09-27T15:52:42;25.60;;;14.85;;
73331;SDS011;61560;33.718;73.040;2022-09-27T15:55:12;30.27;;;14.63;;
73331;SDS011;61560;33.718;73.040;2022-09-27T15:57:41;24.63;;;14.80;;
73331;SDS011;61560;33.718;73.040;2022-09-27T16:00:13;23.00;;;13.98;;
73331;SDS011;61560;33.718;73.040;2022-09-27T16:02:43;26.90;;;14.13;;
73331;SDS011;61560;33.718;73.040;2022-09-27T16:05:10;23.35;;;13.60;;
73331;SDS011;61560;33.718;73.040;2022-09-27T16:07:38;22.63;;;13.50;;
73331;SDS011;61560;33.718;73.040;2022-09-27T16:10:09;23.25;;;14.15;;
73331;SDS011;61560;33.718;73.040;2022-09-27T16:12:43;23.60;;;12.98;;
73331;SDS011;61560;33.718;73.040;2022-09-27T16:15:10;23.77;;;13.98;;
73331;SDS011;61560;33.718;73.040;2022-09-27T16:17:38;25.02;;;13.48;;
73331;SDS011;61560;33.718;73.040;2022-09-27T16:20:17;23.90;;;13.00;;
73331;SDS011;61560;33.718;73.040;2022-09-27T16:22:47;20.88;;;12.65;;
73331;SDS011;61560;33.718;73.040;2022-09-27T16:25:15;22.40;;;12.45;;
73331;SDS011;61560;33.718;73.040;2022-09-27T16:27:42;26.50;;;13.93;;
73331;SDS011;61560;33.718;73.040;2022-09-27T16:30:08;25.70;;;13.32;;
73331;SDS011;61560;33.718;73.040;2022-09-27T16:32:39;21.20;;;12.88;;
73331;SDS011;61560;33.718;73.040;2022-09-27T16:35:11;25.60;;;13.48;;
73331;SDS011;61560;33.718;73.040;2022-09-27T16:37:39;21.10;;;11.88;;
73331;SDS011;61560;33.718;73.040;2022-09-27T16:40:07;23.35;;;14.07;;
73331;SDS011;61560;33.718;73.040;2022-09-27T16:42:35;25.05;;;13.07;;
73331;SDS011;61560;33.718;73.040;2022-09-27T16:45:03;25.75;;;13.23;;
73331;SDS011;61560;33.718;73.040;2022-09-27T16:47:31;25.55;;;13.18;;
73331;SDS011;61560;33.718;73.040;2022-09-27T16:49:58;22.98;;;14.38;;
73331;SDS011;61560;33.718;73.040;2022-09-27T16:52:43;23.00;;;13.48;;
73331;SDS011;61560;33.718;73.040;2022-09-27T16:55:16;23.45;;;13.27;;
73331;SDS011;61560;33.718;73.040;2022-09-27T16:57:48;24.80;;;13.95;;
73331;SDS011;61560;33.718;73.040;2022-09-27T17:00:16;23.45;;;13.57;;
73331;SDS011;61560;33.718;73.040;2022-09-27T17:02:45;23.70;;;12.82;;
73331;SDS011;61560;33.718;73.040;2022-09-27T17:05:13;25.58;;;13.52;;
73331;SDS011;61560;33.718;73.040;2022-09-27T17:07:40;27.73;;;15.45;;
73331;SDS011;61560;33.718;73.040;2022-09-27T17:10:08;29.25;;;18.17;;
73331;SDS011;61560;33.718;73.040;2022-09-27T17:12:35;35.22;;;17.50;;
73331;SDS011;61560;33.718;73.040;2022-09-27T17:15:02;29.83;;;17.63;;
73331;SDS011;61560;33.718;73.040;2022-09-27T17:17:29;32.20;;;17.17;;
73331;SDS011;61560;33.718;73.040;2022-09-27T17:19:55;39.60;;;18.80;;
73331;SDS011;61560;33.718;73.040;2022-09-27T17:22:22;31.90;;;18.25;;
73331;SDS011;61560;33.718;73.040;2022-09-27T17:24:48;31.25;;;18.45;;
73331;SDS011;61560;33.718;73.040;2022-09-27T17:27:15;35.55;;;20.15;;
73331;SDS011;61560;33.718;73.040;2022-09-27T17:29:46;33.70;;;18.65;;
73331;SDS011;61560;33.718;73.040;2022-09-27T17:32:14;36.42;;;20.73;;
73331;SDS011;61560;33.718;73.040;2022-09-27T17:34:40;38.00;;;20.05;;
73331;SDS011;61560;33.718;73.040;2022-09-27T17:37:08;31.80;;;18.48;;
73331;SDS011;61560;33.718;73.040;2022-09-27T17:39:36;33.97;;;18.17;;
73331;SDS011;61560;33.718;73.040;2022-09-27T17:42:03;33.70;;;16.73;;
73331;SDS011;61560;33.718;73.040;2022-09-27T17:44:30;30.38;;;16.45;;
73331;SDS011;61560;33.718;73.040;2022-09-27T17:46:56;26.45;;;14.80;;
73331;SDS011;61560;33.718;73.040;2022-09-27T17:49:41;23.20;;;15.27;;
73331;SDS011;61560;33.718;73.040;2022-09-27T17:52:26;25.98;;;14.48;;
73331;SDS011;61560;33.718;73.040;2022-09-27T17:54:55;25.20;;;14.82;;
73331;SDS011;61560;33.718;73.040;2022-09-27T17:57:23;27.05;;;15.20;;
73331;SDS011;61560;33.718;73.040;2022-09-27T17:59:50;24.00;;;13.98;;
73331;SDS011;61560;33.718;73.040;2022-09-27T18:02:18;24.73;;;15.25;;
73331;SDS011;61560;33.718;73.040;2022-09-27T18:04:45;23.23;;;15.02;;
73331;SDS011;61560;33.718;73.040;2022-09-27T18:07:13;25.15;;;15.23;;
73331;SDS011;61560;33.718;73.040;2022-09-27T18:09:40;23.30;;;14.55;;
73331;SDS011;61560;33.718;73.040;2022-09-27T18:12:07;26.27;;;15.13;;
73331;SDS011;61560;33.718;73.040;2022-09-27T18:14:33;25.48;;;15.20;;
73331;SDS011;61560;33.718;73.040;2022-09-27T18:17:01;29.13;;;15.25;;
73331;SDS011;61560;33.718;73.040;2022-09-27T18:19:27;24.95;;;15.10;;
73331;SDS011;61560;33.718;73.040;2022-09-27T18:21:54;26.10;;;16.25;;
73331;SDS011;61560;33.718;73.040;2022-09-27T18:24:20;29.02;;;14.55;;
73331;SDS011;61560;33.718;73.040;2022-09-27T18:26:47;29.15;;;15.93;;
73331;SDS011;61560;33.718;73.040;2022-09-27T18:29:14;27.63;;;15.57;;
73331;SDS011;61560;33.718;73.040;2022-09-27T18:31:45;29.60;;;15.07;;
73331;SDS011;61560;33.718;73.040;2022-09-27T18:34:13;27.05;;;14.63;;
73331;SDS011;61560;33.718;73.040;2022-09-27T18:36:40;23.10;;;14.65;;
73331;SDS011;61560;33.718;73.040;2022-09-27T18:39:13;24.38;;;14.88;;
73331;SDS011;61560;33.718;73.040;2022-09-27T18:41:47;29.10;;;14.43;;
73331;SDS011;61560;33.718;73.040;2022-09-27T18:44:17;22.90;;;13.55;;
73331;SDS011;61560;33.718;73.040;2022-09-27T18:46:44;29.25;;;15.02;;
73331;SDS011;61560;33.718;73.040;2022-09-27T18:49:12;22.45;;;13.88;;
73331;SDS011;61560;33.718;73.040;2022-09-27T18:51:41;23.27;;;14.20;;
73331;SDS011;61560;33.718;73.040;2022-09-27T18:54:16;24.85;;;15.05;;
73331;SDS011;61560;33.718;73.040;2022-09-27T18:56:47;23.30;;;14.15;;
73331;SDS011;61560;33.718;73.040;2022-09-27T18:59:15;22.52;;;14.40;;
73331;SDS011;61560;33.718;73.040;2022-09-27T19:01:42;22.63;;;13.82;;
73331;SDS011;61560;33.718;73.040;2022-09-27T19:04:11;28.73;;;14.98;;
73331;SDS011;61560;33.718;73.040;2022-09-27T19:06:40;27.17;;;14.57;;
73331;SDS011;61560;33.718;73.040;2022-09-27T19:09:07;24.95;;;14.77;;
73331;SDS011;61560;33.718;73.040;2022-09-27T19:11:36;21.40;;;13.93;;
73331;SDS011;61560;33.718;73.040;2022-09-27T19:14:02;24.52;;;15.27;;
73331;SDS011;61560;33.718;73.040;2022-09-27T19:16:31;26.08;;;14.10;;
73331;SDS011;61560;33.718;73.040;2022-09-27T19:18:57;25.00;;;14.75;;
73331;SDS011;61560;33.718;73.040;2022-09-27T19:21:25;25.83;;;15.35;;
73331;SDS011;61560;33.718;73.040;2022-09-27T19:23:52;26.70;;;15.80;;
73331;SDS011;61560;33.718;73.040;2022-09-27T19:26:22;30.35;;;16.10;;
73331;SDS011;61560;33.718;73.040;2022-09-27T19:28:50;29.98;;;16.63;;
73331;SDS011;61560;33.718;73.040;2022-09-27T19:31:21;27.30;;;16.50;;
73331;SDS011;61560;33.718;73.040;2022-09-27T19:33:51;25.92;;;16.38;;